createdAt,value
2018-09-29T00:01:04.630Z,26.00
2018-09-29T00:03:37.032Z,26.00
2018-09-29T00:06:09.353Z,26.80
2018-09-29T00:08:41.739Z,26.60
2018-09-29T00:11:13.750Z,25.00
2018-09-29T00:13:45.533Z,24.80
2018-09-29T00:16:17.395Z,28.00
2018-09-29T00:18:49.557Z,25.20
2018-09-29T00:21:21.636Z,25.40
2018-09-29T00:23:53.507Z,26.80
2018-09-29T00:26:25.657Z,27.40
2018-09-29T00:28:57.353Z,26.00
2018-09-29T00:31:29.453Z,25.40
2018-09-29T00:34:01.504Z,25.60
2018-09-29T00:36:33.198Z,28.20
2018-09-29T00:39:05.835Z,27.60
2018-09-29T00:41:38.103Z,28.60
2018-09-29T00:44:10.054Z,29.40
2018-09-29T00:46:42.240Z,30.00
2018-09-29T00:49:14.308Z,29.00
2018-09-29T00:51:46.399Z,31.80
2018-09-29T00:54:18.042Z,29.60
2018-09-29T00:56:50.047Z,28.00
2018-09-29T00:59:23.692Z,28.40
2018-09-29T01:01:55.825Z,30.80
2018-09-29T01:04:27.893Z,29.00
2018-09-29T01:07:00.118Z,31.00
2018-09-29T01:09:32.062Z,31.00
2018-09-29T01:12:03.921Z,31.00
2018-09-29T01:14:35.713Z,31.60
2018-09-29T01:17:07.998Z,32.00
2018-09-29T01:19:40.175Z,31.40
2018-09-29T01:22:12.123Z,32.00
2018-09-29T01:24:43.842Z,31.60
2018-09-29T01:27:15.610Z,33.00
2018-09-29T01:29:47.730Z,33.20
2018-09-29T01:32:19.642Z,33.00
2018-09-29T01:34:51.744Z,34.20
2018-09-29T01:37:23.699Z,34.00
2018-09-29T01:39:55.542Z,33.60
2018-09-29T01:42:27.826Z,34.60
2018-09-29T01:45:00.193Z,34.40
2018-09-29T01:47:32.087Z,33.80
2018-09-29T01:50:03.782Z,36.20
2018-09-29T01:52:36.295Z,37.60
2018-09-29T01:55:08.403Z,34.60
2018-09-29T01:57:40.347Z,35.80
2018-09-29T02:00:13.169Z,34.00
2018-09-29T02:02:45.341Z,35.80
2018-09-29T02:05:17.713Z,33.60
2018-09-29T02:07:49.886Z,35.40
2018-09-29T02:10:21.809Z,30.80
2018-09-29T02:12:53.887Z,35.20
2018-09-29T02:15:25.862Z,31.80
2018-09-29T02:17:58.002Z,32.20
2018-09-29T02:20:30.256Z,32.60
2018-09-29T02:23:03.017Z,34.00
2018-09-29T02:25:35.353Z,33.60
2018-09-29T02:28:07.333Z,32.60
2018-09-29T02:30:40.267Z,33.00
2018-09-29T02:33:12.716Z,31.80
2018-09-29T02:35:45.248Z,31.20
2018-09-29T02:38:18.060Z,33.00
2018-09-29T02:40:49.997Z,31.80
2018-09-29T02:43:22.050Z,33.60
2018-09-29T02:45:54.638Z,32.60
2018-09-29T02:48:26.990Z,31.80
2018-09-29T02:50:59.010Z,32.60
2018-09-29T02:53:30.937Z,32.00
